Time;durP1;ratioP1;P1;durP2;ratioP2;P2;SDS_P1;SDS_P2;PMS_P1;PMS_P2;Temp;Humidity;BMP_temperature;BMP_pressure;BME280_temperature;BME280_humidity;BME280_pressure;Samples;Min_cycle;Max_cycle;Signal;HPM_P1;HPM_P2
2022/11/21 00:01:36;;;;;;;1.80;1.27;;;;;;;;;;5038788;28;20518;-73
2022/11/21 00:04:02;;;;;;;1.40;1.10;;;;;;;;;;5041922;28;20130;-75
2022/11/21 00:06:28;;;;;;;1.70;1.30;;;;;;;;;;5034654;28;20461;-76
2022/11/21 00:08:55;;;;;;;2.38;1.20;;;;;;;;;;5037913;28;20048;-73
2022/11/21 00:11:21;;;;;;;1.67;1.30;;;;;;;;;;5042172;28;20150;-72
2022/11/21 00:13:47;;;;;;;1.75;1.20;;;;;;;;;;5020206;28;20044;-72
2022/11/21 00:16:14;;;;;;;1.30;1.20;;;;;;;;;;5035035;28;20051;-72
2022/11/21 00:18:42;;;;;;;3.22;1.25;;;;;;;;;;5039372;28;20110;-72
2022/11/21 00:21:17;;;;;;;3.03;1.30;;;;;;;;;;5032992;28;20049;-75
2022/11/21 00:23:43;;;;;;;;;;;;;;;;;;5040873;28;20534;-71
2022/11/21 00:26:11;;;;;;;1.17;1.02;;;;;;;;;;5037944;28;19968;-72
2022/11/21 00:28:37;;;;;;;2.00;1.23;;;;;;;;;;5039601;28;20276;-72
2022/11/21 00:31:04;;;;;;;2.42;1.40;;;;;;;;;;5040510;28;20101;-73
2022/11/21 00:33:30;;;;;;;1.83;1.30;;;;;;;;;;5036059;28;20064;-72
2022/11/21 00:35:56;;;;;;;2.38;1.13;;;;;;;;;;5035485;28;20193;-69
2022/11/21 00:38:23;;;;;;;1.17;1.08;;;;;;;;;;5037123;28;20059;-71
2022/11/21 00:40:49;;;;;;;1.65;1.15;;;;;;;;;;5042930;28;20055;-72
2022/11/21 00:43:15;;;;;;;2.65;1.20;;;;;;;;;;5040681;28;20438;-73
2022/11/21 00:45:41;;;;;;;1.10;1.00;;;;;;;;;;5035933;28;20049;-75
2022/11/21 00:48:07;;;;;;;1.33;1.08;;;;;;;;;;5022494;28;20486;-73
2022/11/21 00:50:33;;;;;;;2.17;1.10;;;;;;;;;;5039551;28;20044;-72
2022/11/21 00:52:59;;;;;;;2.00;1.20;;;;;;;;;;5037862;28;20060;-73
2022/11/21 00:55:25;;;;;;;2.13;1.20;;;;;;;;;;5037124;28;20056;-74
2022/11/21 00:57:51;;;;;;;1.50;1.10;;;;;;;;;;5038480;28;20140;-72
2022/11/21 01:00:17;;;;;;;1.98;1.10;;;;;;;;;;5033329;28;20061;-71
2022/11/21 01:02:43;;;;;;;1.60;1.08;;;;;;;;;;5037591;28;20044;-69
2022/11/21 01:05:09;;;;;;;1.08;0.95;;;;;;;;;;5039074;28;20481;-72
2022/11/21 01:07:35;;;;;;;1.20;1.10;;;;;;;;;;5035099;28;20134;-71
2022/11/21 01:10:01;;;;;;;1.55;1.17;;;;;;;;;;5036065;28;20049;-72
2022/11/21 01:12:27;;;;;;;1.20;1.10;;;;;;;;;;5036378;28;20056;-72
2022/11/21 01:14:53;;;;;;;5.50;1.23;;;;;;;;;;5037756;28;20061;-73
2022/11/21 01:17:19;;;;;;;1.48;1.00;;;;;;;;;;5040366;28;20053;-71
2022/11/21 01:19:45;;;;;;;1.52;0.90;;;;;;;;;;5033375;28;20064;-72
2022/11/21 01:22:11;;;;;;;1.40;0.82;;;;;;;;;;5034935;28;20186;-71
2022/11/21 01:24:37;;;;;;;1.50;1.00;;;;;;;;;;5038537;28;20076;-71
2022/11/21 01:27:03;;;;;;;1.40;1.00;;;;;;;;;;5037334;28;20053;-71
2022/11/21 01:29:29;;;;;;;1.02;0.90;;;;;;;;;;5036871;28;20579;-72
2022/11/21 01:31:55;;;;;;;1.25;0.90;;;;;;;;;;5032377;28;20323;-70
2022/11/21 01:34:21;;;;;;;2.10;0.98;;;;;;;;;;5035681;28;20467;-73
2022/11/21 01:36:47;;;;;;;1.35;1.00;;;;;;;;;;5034698;28;20056;-70
2022/11/21 01:39:13;;;;;;;1.23;1.05;;;;;;;;;;5030905;28;20052;-70
2022/11/21 01:41:41;;;;;;;1.80;1.08;;;;;;;;;;5038582;28;21126;-72
2022/11/21 01:44:23;;;;;;;0.90;0.90;;;;;;;;;;5028815;28;20049;-72
2022/11/21 01:46:51;;;;;;;1.67;1.00;;;;;;;;;;5035368;28;20067;-68
2022/11/21 01:49:29;;;;;;;4.95;1.10;;;;;;;;;;5035091;28;20041;-70
2022/11/21 01:52:07;;;;;;;1.00;0.90;;;;;;;;;;5040409;28;20218;-70
2022/11/21 01:54:56;;;;;;;2.33;1.10;;;;;;;;;;5041254;28;20049;-71
2022/11/21 01:57:28;;;;;;;1.38;1.00;;;;;;;;;;5019811;28;20056;-69
2022/11/21 02:00:06;;;;;;;1.48;1.00;;;;;;;;;;5035388;28;20045;-72
2022/11/21 02:02:35;;;;;;;2.03;1.10;;;;;;;;;;5038111;28;20076;-70
2022/11/21 02:05:03;;;;;;;1.10;1.00;;;;;;;;;;5017200;28;20056;-71
2022/11/21 02:07:33;;;;;;;1.00;0.90;;;;;;;;;;5036859;28;20709;-71
2022/11/21 02:10:01;;;;;;;1.60;1.02;;;;;;;;;;5037380;28;20054;-71
2022/11/21 02:12:32;;;;;;;0.70;0.70;;;;;;;;;;5033058;28;20155;-70
2022/11/21 02:14:59;;;;;;;2.20;1.00;;;;;;;;;;5034235;28;20048;-70
2022/11/21 02:17:28;;;;;;;1.42;0.93;;;;;;;;;;5035925;28;20061;-70
2022/11/21 02:20:03;;;;;;;1.55;1.10;;;;;;;;;;5033433;28;20941;-69
2022/11/21 02:22:51;;;;;;;1.00;0.90;;;;;;;;;;5040349;28;20057;-68
2022/11/21 02:25:20;;;;;;;1.10;1.00;;;;;;;;;;5036942;28;20238;-72
2022/11/21 02:27:49;;;;;;;1.13;0.80;;;;;;;;;;5038419;28;20455;-69
2022/11/21 02:30:16;;;;;;;0.95;0.88;;;;;;;;;;5033154;28;20053;-71
2022/11/21 02:32:47;;;;;;;1.40;0.90;;;;;;;;;;5037351;28;20406;-70
2022/11/21 02:35:15;;;;;;;1.05;0.95;;;;;;;;;;5035933;28;20056;-72
2022/11/21 02:37:44;;;;;;;1.20;0.90;;;;;;;;;;5039309;28;20121;-72
2022/11/21 02:40:16;;;;;;;1.55;0.98;;;;;;;;;;5030639;28;20057;-70
2022/11/21 02:43:12;;;;;;;0.90;0.80;;;;;;;;;;5035928;28;20296;-70
2022/11/21 02:45:43;;;;;;;1.77;1.00;;;;;;;;;;5040871;28;20083;-73
2022/11/21 02:48:10;;;;;;;1.00;0.82;;;;;;;;;;5041541;28;20045;-71
2022/11/21 02:50:41;;;;;;;1.30;0.90;;;;;;;;;;5037448;28;20278;-70
2022/11/21 02:53:09;;;;;;;1.45;0.80;;;;;;;;;;5022704;28;20406;-68
2022/11/21 02:55:36;;;;;;;1.25;0.90;;;;;;;;;;5044180;28;20067;-72
2022/11/21 02:58:03;;;;;;;1.15;0.80;;;;;;;;;;5043377;28;20049;-72
2022/11/21 03:00:29;;;;;;;1.10;0.90;;;;;;;;;;5037668;28;20599;-69
2022/11/21 03:02:55;;;;;;;2.03;1.10;;;;;;;;;;5042095;28;20049;-67
2022/11/21 03:05:21;;;;;;;0.80;0.80;;;;;;;;;;5041990;28;20516;-69
2022/11/21 03:07:48;;;;;;;1.30;0.90;;;;;;;;;;5043937;28;20516;-66
2022/11/21 03:10:14;;;;;;;1.65;1.10;;;;;;;;;;5033408;28;20406;-70
2022/11/21 03:12:42;;;;;;;1.33;0.98;;;;;;;;;;5035655;28;20052;-71
2022/11/21 03:15:11;;;;;;;0.93;0.90;;;;;;;;;;5040667;28;20049;-68
2022/11/21 03:17:38;;;;;;;2.22;1.10;;;;;;;;;;5041537;28;20075;-69
2022/11/21 03:20:05;;;;;;;8.50;1.20;;;;;;;;;;5028032;28;20057;-71
2022/11/21 03:22:31;;;;;;;0.93;0.82;;;;;;;;;;5042760;28;20475;-70
2022/11/21 03:24:57;;;;;;;1.25;0.85;;;;;;;;;;5040323;28;20406;-68
2022/11/21 03:27:23;;;;;;;1.52;0.80;;;;;;;;;;5038543;28;20128;-70
2022/11/21 03:29:49;;;;;;;1.02;0.93;;;;;;;;;;5034220;28;20448;-70
2022/11/21 03:32:15;;;;;;;1.00;0.90;;;;;;;;;;5039185;28;20057;-69
2022/11/21 03:34:41;;;;;;;1.00;0.90;;;;;;;;;;5043205;28;20056;-71
2022/11/21 03:37:07;;;;;;;1.05;0.70;;;;;;;;;;5042972;28;20405;-69
2022/11/21 03:39:33;;;;;;;1.17;0.90;;;;;;;;;;5035653;28;20052;-69
2022/11/21 03:41:59;;;;;;;1.40;1.00;;;;;;;;;;5035233;28;20056;-71
2022/11/21 03:44:25;;;;;;;1.00;0.85;;;;;;;;;;5038104;28;20498;-70
2022/11/21 03:46:51;;;;;;;0.95;0.70;;;;;;;;;;5037832;28;20135;-73
2022/11/21 03:49:17;;;;;;;2.33;0.90;;;;;;;;;;5033788;28;20041;-70
2022/11/21 03:51:43;;;;;;;1.40;0.90;;;;;;;;;;5036147;28;20067;-70
2022/11/21 03:54:10;;;;;;;0.82;0.82;;;;;;;;;;5038219;28;20056;-73
2022/11/21 03:56:38;;;;;;;1.38;0.90;;;;;;;;;;5034687;28;20048;-72
2022/11/21 03:59:04;;;;;;;1.17;1.00;;;;;;;;;;5031512;28;20049;-71
2022/11/21 04:01:31;;;;;;;1.05;0.80;;;;;;;;;;5036233;28;20996;-69
2022/11/21 04:03:57;;;;;;;0.80;0.80;;;;;;;;;;5035530;28;20044;-68
2022/11/21 04:06:24;;;;;;;1.58;0.90;;;;;;;;;;5038993;28;20057;-69
2022/11/21 04:08:49;;;;;;;1.00;0.90;;;;;;;;;;5033636;28;20462;-70
2022/11/21 04:11:16;;;;;;;0.82;0.82;;;;;;;;;;5020354;28;20591;-71
2022/11/21 04:13:42;;;;;;;1.10;1.00;;;;;;;;;;5022577;28;20048;-71
2022/11/21 04:16:08;;;;;;;2.53;0.98;;;;;;;;;;5039127;28;20561;-71
2022/11/21 04:18:35;;;;;;;1.50;0.70;;;;;;;;;;5030927;28;20079;-70
2022/11/21 04:21:03;;;;;;;1.17;0.80;;;;;;;;;;5041982;28;20106;-72
2022/11/21 04:23:29;;;;;;;1.75;0.77;;;;;;;;;;5039962;28;20052;-69
2022/11/21 04:25:56;;;;;;;1.25;0.80;;;;;;;;;;5040030;28;20241;-70
2022/11/21 04:28:22;;;;;;;0.50;0.50;;;;;;;;;;5032292;28;20064;-72
2022/11/21 04:30:49;;;;;;;0.82;0.80;;;;;;;;;;5033631;28;20053;-69
2022/11/21 04:33:16;;;;;;;0.93;0.80;;;;;;;;;;5023230;28;20057;-72
2022/11/21 04:35:43;;;;;;;1.75;0.90;;;;;;;;;;5040219;28;20051;-70
2022/11/21 04:38:09;;;;;;;0.90;0.80;;;;;;;;;;5039310;28;20069;-72
2022/11/21 04:40:36;;;;;;;1.17;0.73;;;;;;;;;;5038723;28;20091;-71
2022/11/21 04:43:03;;;;;;;1.02;0.70;;;;;;;;;;5034741;28;20094;-73
2022/11/21 04:45:29;;;;;;;0.65;0.65;;;;;;;;;;5035173;28;20061;-70
2022/11/21 04:47:55;;;;;;;1.77;0.70;;;;;;;;;;5038304;28;20136;-68
2022/11/21 04:50:21;;;;;;;1.52;1.00;;;;;;;;;;5030383;28;20045;-68
2022/11/21 04:52:55;;;;;;;0.98;0.80;;;;;;;;;;5033110;28;20052;-69
2022/11/21 04:55:25;;;;;;;3.43;0.80;;;;;;;;;;5034324;28;20045;-69
2022/11/21 04:57:51;;;;;;;2.50;0.90;;;;;;;;;;5030415;28;20290;-68
2022/11/21 05:00:18;;;;;;;2.58;1.02;;;;;;;;;;5029405;28;20121;-69
2022/11/21 05:02:44;;;;;;;0.80;0.80;;;;;;;;;;5037402;28;20064;-71
2022/11/21 05:05:10;;;;;;;1.00;0.90;;;;;;;;;;5035180;28;20057;-72
2022/11/21 05:07:36;;;;;;;1.00;0.82;;;;;;;;;;5033002;28;20059;-74
2022/11/21 05:10:04;;;;;;;0.77;0.77;;;;;;;;;;5027967;28;20524;-69
2022/11/21 05:15:15;;;;;;;1.75;0.88;;;;;;;;;;5031297;28;20536;-72
2022/11/21 05:17:41;;;;;;;1.30;0.80;;;;;;;;;;5035808;28;20052;-75
2022/11/21 05:20:08;;;;;;;1.08;0.98;;;;;;;;;;5033746;28;20415;-73
2022/11/21 05:22:33;;;;;;;1.40;1.00;;;;;;;;;;5033968;28;20055;-71
2022/11/21 05:24:59;;;;;;;1.63;1.05;;;;;;;;;;5034811;28;20052;-70
2022/11/21 05:27:25;;;;;;;2.13;1.10;;;;;;;;;;5035393;28;20053;-72
2022/11/21 05:29:52;;;;;;;1.42;1.15;;;;;;;;;;5016757;28;20482;-70
2022/11/21 05:32:17;;;;;;;1.38;1.00;;;;;;;;;;5038610;28;20052;-69
2022/11/21 05:34:43;;;;;;;2.85;1.10;;;;;;;;;;5040079;28;20057;-72
2022/11/21 05:37:09;;;;;;;1.63;1.15;;;;;;;;;;5036279;28;20057;-73
2022/11/21 05:39:35;;;;;;;1.60;1.05;;;;;;;;;;5031939;28;20056;-71
2022/11/21 05:42:01;;;;;;;1.15;0.93;;;;;;;;;;5040898;28;20056;-75
2022/11/21 05:44:27;;;;;;;1.20;0.90;;;;;;;;;;5024918;28;20071;-69
2022/11/21 05:46:53;;;;;;;1.25;0.90;;;;;;;;;;5033005;28;20179;-71
2022/11/21 05:49:20;;;;;;;3.70;1.00;;;;;;;;;;5034862;28;20048;-69
2022/11/21 05:51:45;;;;;;;1.63;1.10;;;;;;;;;;5031452;28;20037;-72
2022/11/21 05:54:13;;;;;;;1.40;1.08;;;;;;;;;;5030525;28;20124;-70
2022/11/21 05:56:39;;;;;;;2.40;0.88;;;;;;;;;;5030244;28;20049;-71
2022/11/21 05:59:07;;;;;;;1.20;0.90;;;;;;;;;;5029999;28;20059;-72
2022/11/21 06:04:18;;;;;;;1.23;0.90;;;;;;;;;;5030254;28;20506;-69
2022/11/21 06:06:43;;;;;;;0.88;0.88;;;;;;;;;;5035774;28;20052;-70
2022/11/21 06:09:10;;;;;;;1.65;1.10;;;;;;;;;;5029316;28;20052;-70
2022/11/21 06:11:35;;;;;;;2.65;1.00;;;;;;;;;;5020047;28;20753;-71
2022/11/21 06:14:01;;;;;;;2.08;0.90;;;;;;;;;;5036179;28;20075;-69
2022/11/21 06:16:27;;;;;;;1.45;0.90;;;;;;;;;;5035485;28;20484;-70
2022/11/21 06:18:53;;;;;;;1.65;0.90;;;;;;;;;;5029894;28;20367;-71
2022/11/21 06:21:22;;;;;;;1.25;1.02;;;;;;;;;;5034263;28;20048;-70
2022/11/21 06:23:53;;;;;;;1.67;0.85;;;;;;;;;;5029638;28;20056;-71
2022/11/21 06:26:21;;;;;;;0.80;0.75;;;;;;;;;;5026278;28;20207;-70
2022/11/21 06:28:47;;;;;;;1.90;0.90;;;;;;;;;;5026233;28;20044;-72
2022/11/21 06:31:16;;;;;;;2.53;1.00;;;;;;;;;;5030559;28;20513;-72
2022/11/21 06:33:43;;;;;;;1.23;0.90;;;;;;;;;;5021998;28;20060;-75
2022/11/21 06:36:14;;;;;;;0.80;0.70;;;;;;;;;;5033525;28;20068;-72
2022/11/21 06:38:41;;;;;;;3.80;1.00;;;;;;;;;;5025287;28;20053;-73
2022/11/21 06:41:10;;;;;;;0.82;0.77;;;;;;;;;;5033771;28;20616;-72
2022/11/21 06:43:37;;;;;;;2.97;1.17;;;;;;;;;;5036011;28;20221;-73
2022/11/21 06:46:03;;;;;;;1.83;1.00;;;;;;;;;;5035155;28;20066;-73
2022/11/21 06:48:33;;;;;;;2.28;1.10;;;;;;;;;;5021066;28;20053;-77
2022/11/21 06:51:07;;;;;;;0.95;0.70;;;;;;;;;;5036062;28;20087;-73
2022/11/21 06:53:33;;;;;;;1.20;0.88;;;;;;;;;;5031831;28;20044;-74
2022/11/21 06:56:01;;;;;;;3.60;0.98;;;;;;;;;;5025449;28;20049;-71
2022/11/21 06:58:28;;;;;;;2.65;1.13;;;;;;;;;;5025492;28;20265;-69
2022/11/21 07:00:54;;;;;;;2.03;1.10;;;;;;;;;;5028913;28;20625;-75
2022/11/21 07:03:21;;;;;;;3.00;0.80;;;;;;;;;;5032065;28;20056;-71
2022/11/21 07:05:47;;;;;;;2.30;1.00;;;;;;;;;;5035024;28;20049;-72
2022/11/21 07:08:13;;;;;;;1.50;1.00;;;;;;;;;;5028207;28;20049;-73
2022/11/21 07:10:40;;;;;;;4.43;1.05;;;;;;;;;;5036036;28;20103;-73
2022/11/21 07:13:21;;;;;;;4.38;0.98;;;;;;;;;;5020962;28;20056;-71
2022/11/21 07:15:50;;;;;;;1.30;1.00;;;;;;;;;;5031553;28;20056;-73
2022/11/21 07:18:17;;;;;;;5.22;1.10;;;;;;;;;;5030307;28;20079;-72
2022/11/21 07:20:43;;;;;;;3.28;1.00;;;;;;;;;;5024332;28;20222;-70
2022/11/21 07:23:09;;;;;;;4.45;1.20;;;;;;;;;;5032021;28;20525;-75
2022/11/21 07:25:35;;;;;;;2.42;1.05;;;;;;;;;;5029182;28;20040;-72
2022/11/21 07:28:02;;;;;;;1.75;1.10;;;;;;;;;;5029988;28;20048;-70
2022/11/21 07:30:28;;;;;;;5.47;1.10;;;;;;;;;;5033356;28;20064;-72
2022/11/21 07:32:55;;;;;;;2.75;1.20;;;;;;;;;;5034909;28;20468;-75
2022/11/21 07:35:21;;;;;;;1.73;1.08;;;;;;;;;;5037582;28;20477;-71
2022/11/21 07:37:47;;;;;;;5.85;1.40;;;;;;;;;;5038177;28;20045;-73
2022/11/21 07:40:13;;;;;;;3.10;1.30;;;;;;;;;;5033362;28;20052;-73
2022/11/21 07:42:39;;;;;;;2.78;1.17;;;;;;;;;;5040011;28;21013;-75
2022/11/21 07:45:09;;;;;;;2.45;1.20;;;;;;;;;;5036793;28;20141;-71
2022/11/21 07:47:35;;;;;;;2.17;1.02;;;;;;;;;;5030698;28;20084;-74
2022/11/21 07:50:01;;;;;;;3.75;1.17;;;;;;;;;;5020756;28;20160;-70
2022/11/21 07:52:29;;;;;;;3.47;1.10;;;;;;;;;;5030730;28;20063;-74
2022/11/21 07:54:55;;;;;;;3.25;1.20;;;;;;;;;;5035840;28;20056;-72
2022/11/21 07:57:22;;;;;;;4.80;1.20;;;;;;;;;;5036396;28;20045;-71
2022/11/21 07:59:48;;;;;;;3.55;1.38;;;;;;;;;;5038166;28;20049;-72
2022/11/21 08:02:18;;;;;;;5.90;1.20;;;;;;;;;;5036508;28;20113;-73
2022/11/21 08:04:44;;;;;;;1.98;1.33;;;;;;;;;;5036166;28;20066;-75
2022/11/21 08:07:11;;;;;;;2.15;1.45;;;;;;;;;;5030021;28;20053;-72
2022/11/21 08:09:36;;;;;;;2.78;1.42;;;;;;;;;;5023096;28;20052;-73
2022/11/21 08:12:03;;;;;;;3.33;1.50;;;;;;;;;;5031313;28;20139;-73
2022/11/21 08:14:28;;;;;;;7.30;1.60;;;;;;;;;;5034718;28;20671;-74
2022/11/21 08:16:54;;;;;;;1.80;1.33;;;;;;;;;;5033340;28;20296;-73
2022/11/21 08:19:20;;;;;;;7.53;1.23;;;;;;;;;;5031267;28;20057;-73
2022/11/21 08:21:47;;;;;;;2.70;1.55;;;;;;;;;;5035201;28;20045;-73
2022/11/21 08:24:13;;;;;;;10.18;1.80;;;;;;;;;;5029718;28;20057;-73
2022/11/21 08:26:40;;;;;;;7.80;2.00;;;;;;;;;;5035517;28;20071;-75
2022/11/21 08:29:06;;;;;;;6.93;1.50;;;;;;;;;;5029309;28;20048;-72
2022/11/21 08:31:32;;;;;;;2.08;1.02;;;;;;;;;;5027085;28;20601;-74
2022/11/21 08:33:58;;;;;;;2.90;1.50;;;;;;;;;;5027901;28;20053;-75
2022/11/21 08:36:24;;;;;;;5.07;1.40;;;;;;;;;;5032673;28;20218;-75
2022/11/21 08:38:50;;;;;;;3.58;1.40;;;;;;;;;;5030317;28;20049;-74
2022/11/21 08:44:01;;;;;;;2.25;1.30;;;;;;;;;;5028223;28;20681;-73
2022/11/21 08:46:27;;;;;;;4.78;1.48;;;;;;;;;;5036407;28;20529;-72
2022/11/21 08:48:54;;;;;;;2.83;1.15;;;;;;;;;;5031925;28;20076;-74
2022/11/21 08:51:20;;;;;;;2.63;1.23;;;;;;;;;;5035948;28;20041;-74
2022/11/21 08:53:46;;;;;;;2.35;1.30;;;;;;;;;;5033932;28;20056;-72
2022/11/21 08:56:12;;;;;;;3.47;1.25;;;;;;;;;;5028917;28;20114;-75
2022/11/21 08:58:39;;;;;;;6.43;1.65;;;;;;;;;;5031546;28;20055;-73
2022/11/21 09:01:05;;;;;;;1.98;1.23;;;;;;;;;;5018935;28;20401;-76
2022/11/21 09:03:31;;;;;;;8.32;1.70;;;;;;;;;;5034758;28;20053;-74
2022/11/21 09:05:58;;;;;;;3.63;1.55;;;;;;;;;;5036952;28;20503;-77
2022/11/21 09:08:25;;;;;;;8.60;1.80;;;;;;;;;;5024240;28;20071;-73
2022/11/21 09:10:51;;;;;;;6.10;1.60;;;;;;;;;;5032076;28;20103;-72
2022/11/21 09:13:17;;;;;;;2.08;1.27;;;;;;;;;;5036859;28;20053;-73
2022/11/21 09:18:28;;;;;;;4.25;1.50;;;;;;;;;;5026382;28;20143;-73
2022/11/21 09:20:54;;;;;;;5.00;1.35;;;;;;;;;;5034854;28;20459;-77
2022/11/21 09:23:19;;;;;;;2.15;1.27;;;;;;;;;;5029364;28;20526;-70
2022/11/21 09:25:46;;;;;;;5.13;1.42;;;;;;;;;;5031546;28;20510;-73
2022/11/21 09:28:13;;;;;;;2.72;1.50;;;;;;;;;;5033809;28;20441;-71
2022/11/21 09:30:40;;;;;;;3.72;1.60;;;;;;;;;;5030808;28;20356;-73
2022/11/21 09:33:10;;;;;;;3.15;1.30;;;;;;;;;;5011565;28;20055;-73
2022/11/21 09:35:37;;;;;;;6.05;1.40;;;;;;;;;;5034370;28;20044;-74
2022/11/21 09:38:03;;;;;;;2.00;1.08;;;;;;;;;;5032878;28;20173;-75
2022/11/21 09:40:31;;;;;;;3.05;1.13;;;;;;;;;;5029199;28;20960;-75
2022/11/21 09:43:35;;;;;;;1.95;1.10;;;;;;;;;;5030053;28;20049;-74
2022/11/21 09:46:12;;;;;;;4.10;1.20;;;;;;;;;;5035006;28;20057;-73
2022/11/21 09:48:51;;;;;;;2.58;1.40;;;;;;;;;;5024614;28;20847;-74
2022/11/21 09:51:19;;;;;;;4.35;1.42;;;;;;;;;;5031764;28;20049;-74
2022/11/21 09:54:19;;;;;;;2.60;1.17;;;;;;;;;;5034948;28;20044;-75
2022/11/21 09:56:46;;;;;;;2.42;1.40;;;;;;;;;;5023038;28;20048;-75
2022/11/21 09:59:36;;;;;;;5.45;1.35;;;;;;;;;;5027570;28;21627;-74
2022/11/21 10:02:19;;;;;;;1.85;1.27;;;;;;;;;;5027760;28;20079;-74
2022/11/21 10:04:46;;;;;;;5.93;1.48;;;;;;;;;;5027749;28;20437;-75
2022/11/21 10:07:25;;;;;;;6.38;1.30;;;;;;;;;;5029333;28;20400;-75
2022/11/21 10:10:30;;;;;;;3.03;1.17;;;;;;;;;;5020732;28;20037;-74
2022/11/21 10:13:35;;;;;;;1.60;1.20;;;;;;;;;;5028756;28;20858;-75
2022/11/21 10:16:51;;;;;;;2.97;1.20;;;;;;;;;;5021550;28;20061;-73
2022/11/21 10:19:36;;;;;;;4.68;1.20;;;;;;;;;;5026361;28;20067;-72
2022/11/21 10:22:20;;;;;;;5.05;1.30;;;;;;;;;;5021032;28;20719;-74
2022/11/21 10:25:13;;;;;;;1.65;1.20;;;;;;;;;;5032270;28;20133;-75
2022/11/21 10:27:59;;;;;;;5.57;1.50;;;;;;;;;;5035006;28;20045;-74
2022/11/21 10:30:25;;;;;;;5.15;1.45;;;;;;;;;;5026320;28;20251;-73
2022/11/21 10:33:05;;;;;;;7.32;1.33;;;;;;;;;;5033161;28;20049;-74
2022/11/21 10:35:39;;;;;;;2.55;1.30;;;;;;;;;;5035209;28;20173;-74
2022/11/21 10:38:19;;;;;;;4.68;1.10;;;;;;;;;;5032638;28;20048;-73
2022/11/21 10:41:06;;;;;;;2.65;1.10;;;;;;;;;;5032235;28;20823;-73
2022/11/21 10:46:27;;;;;;;4.55;1.10;;;;;;;;;;5034549;28;20053;-71
2022/11/21 10:49:03;;;;;;;5.80;1.42;;;;;;;;;;5025682;28;20351;-71
2022/11/21 10:51:52;;;;;;;6.65;1.10;;;;;;;;;;5032362;28;20053;-71
2022/11/21 10:54:33;;;;;;;3.95;1.00;;;;;;;;;;5031605;28;20802;-73
2022/11/21 10:57:15;;;;;;;4.72;1.42;;;;;;;;;;5034255;28;20672;-74
2022/11/21 10:59:58;;;;;;;7.55;1.42;;;;;;;;;;5034460;28;20054;-73
2022/11/21 11:02:25;;;;;;;3.75;1.10;;;;;;;;;;5031895;28;20208;-72
2022/11/21 11:05:17;;;;;;;6.97;1.40;;;;;;;;;;5036576;28;20049;-72
2022/11/21 11:08:08;;;;;;;6.00;1.23;;;;;;;;;;5035798;28;20065;-73
2022/11/21 11:10:41;;;;;;;6.05;1.10;;;;;;;;;;5030143;28;20451;-73
2022/11/21 11:13:32;;;;;;;3.72;0.93;;;;;;;;;;5038663;28;20044;-73
2022/11/21 11:16:14;;;;;;;5.20;0.90;;;;;;;;;;5023915;28;20135;-71
2022/11/21 11:18:56;;;;;;;3.00;1.33;;;;;;;;;;5018649;28;20179;-71
2022/11/21 11:21:28;;;;;;;7.55;1.17;;;;;;;;;;5035562;28;20470;-71
2022/11/21 11:24:09;;;;;;;7.18;1.30;;;;;;;;;;5022879;28;20059;-73
2022/11/21 11:26:46;;;;;;;1.77;1.10;;;;;;;;;;5039016;28;20072;-72
2022/11/21 11:29:16;;;;;;;2.92;0.93;;;;;;;;;;5036678;28;20049;-71
2022/11/21 11:32:03;;;;;;;5.72;1.27;;;;;;;;;;5037953;28;20053;-71
2022/11/21 11:34:47;;;;;;;2.40;1.20;;;;;;;;;;5040369;28;20052;-75
2022/11/21 11:37:20;;;;;;;5.95;0.93;;;;;;;;;;5037071;28;20057;-72
2022/11/21 11:40:05;;;;;;;7.57;1.00;;;;;;;;;;5033955;28;20049;-73
2022/11/21 11:49:02;;;;;;;6.00;1.20;;;;;;;;;;5035319;28;20670;-71
2022/11/21 11:51:38;;;;;;;6.03;1.23;;;;;;;;;;5037462;28;20041;-71
2022/11/21 11:54:14;;;;;;;2.30;1.10;;;;;;;;;;5036229;28;20076;-70
2022/11/21 11:56:42;;;;;;;7.20;1.35;;;;;;;;;;5031334;28;20048;-74
2022/11/21 11:59:37;;;;;;;3.17;1.02;;;;;;;;;;5034441;28;20052;-70
2022/11/21 12:02:22;;;;;;;3.95;1.23;;;;;;;;;;5030487;28;20235;-71
2022/11/21 12:04:54;;;;;;;1.52;0.95;;;;;;;;;;5038940;28;20047;-71
2022/11/21 12:07:23;;;;;;;5.90;1.00;;;;;;;;;;5035196;28;20623;-72
2022/11/21 12:10:10;;;;;;;2.05;1.08;;;;;;;;;;5035771;28;20053;-74
2022/11/21 12:12:49;;;;;;;3.42;0.90;;;;;;;;;;5034825;28;20329;-71
2022/11/21 12:18:18;;;;;;;3.20;1.00;;;;;;;;;;5043120;28;20080;-72
2022/11/21 12:21:14;;;;;;;1.92;0.90;;;;;;;;;;5037257;28;20059;-75
2022/11/21 12:23:51;;;;;;;4.22;1.00;;;;;;;;;;5041414;28;20067;-72
2022/11/21 12:26:21;;;;;;;4.47;1.20;;;;;;;;;;5034884;28;20048;-75
2022/11/21 12:28:53;;;;;;;3.42;1.05;;;;;;;;;;5035532;28;20076;-73
2022/11/21 12:31:26;;;;;;;5.90;1.13;;;;;;;;;;5038242;28;20044;-72
2022/11/21 12:34:04;;;;;;;2.47;1.20;;;;;;;;;;5040018;28;20460;-74
2022/11/21 12:36:58;;;;;;;14.88;1.02;;;;;;;;;;5031898;28;20163;-76
2022/11/21 12:39:52;;;;;;;6.75;1.83;;;;;;;;;;5033800;28;20071;-74
2022/11/21 12:42:50;;;;;;;1.42;0.90;;;;;;;;;;5033371;28;20147;-72
2022/11/21 12:45:28;;;;;;;1.63;0.80;;;;;;;;;;5030623;28;20205;-73
2022/11/21 12:54:30;;;;;;;4.22;1.52;;;;;;;;;;5032415;28;20060;-74
2022/11/21 12:57:03;;;;;;;4.40;1.10;;;;;;;;;;5038577;28;20063;-73
2022/11/21 12:59:32;;;;;;;7.95;0.90;;;;;;;;;;5031962;28;20045;-74
2022/11/21 13:02:04;;;;;;;0.90;0.75;;;;;;;;;;5038825;28;20057;-72
2022/11/21 13:04:34;;;;;;;2.15;0.90;;;;;;;;;;5036863;28;20183;-69
2022/11/21 13:07:02;;;;;;;3.25;1.00;;;;;;;;;;5029682;28;20082;-70
2022/11/21 13:09:32;;;;;;;3.38;1.00;;;;;;;;;;5027852;28;20052;-73
2022/11/21 13:12:31;;;;;;;2.22;1.15;;;;;;;;;;5034425;28;20056;-76
2022/11/21 13:15:22;;;;;;;2.58;0.93;;;;;;;;;;5025073;28;20128;-75
2022/11/21 13:17:57;;;;;;;1.08;0.90;;;;;;;;;;5034088;28;20081;-73
2022/11/21 13:20:38;;;;;;;3.63;1.58;;;;;;;;;;5029433;28;20070;-73
2022/11/21 13:23:37;;;;;;;1.52;0.93;;;;;;;;;;5030392;28;20469;-73
2022/11/21 13:26:24;;;;;;;1.85;0.82;;;;;;;;;;5034467;28;20053;-74
2022/11/21 13:29:07;;;;;;;2.55;0.95;;;;;;;;;;5031523;28;20379;-77
2022/11/21 13:31:34;;;;;;;3.75;1.02;;;;;;;;;;5030304;28;20325;-73
2022/11/21 13:34:01;;;;;;;1.63;0.85;;;;;;;;;;5031125;28;20127;-75
2022/11/21 13:36:27;;;;;;;1.30;1.00;;;;;;;;;;5035572;28;20139;-75
2022/11/21 13:38:53;;;;;;;2.10;1.10;;;;;;;;;;5028055;28;20131;-74
2022/11/21 13:44:48;;;;;;;1.48;0.70;;;;;;;;;;5038263;28;20053;-73
2022/11/21 13:47:24;;;;;;;3.80;1.00;;;;;;;;;;5033389;28;20469;-74
2022/11/21 13:50:18;;;;;;;1.60;0.73;;;;;;;;;;5031911;28;20441;-75
2022/11/21 13:53:35;;;;;;;4.05;1.10;;;;;;;;;;5037912;28;20102;-70
2022/11/21 13:56:07;;;;;;;3.83;0.90;;;;;;;;;;5000482;28;20083;-73
2022/11/21 13:58:47;;;;;;;0.82;0.70;;;;;;;;;;5034544;28;20072;-75
2022/11/21 14:01:50;;;;;;;3.88;0.95;;;;;;;;;;5041739;28;20591;-74
2022/11/21 14:08:19;;;;;;;1.83;0.65;;;;;;;;;;5026262;28;20076;-71
2022/11/21 14:10:47;;;;;;;3.75;1.10;;;;;;;;;;5011266;28;20650;-72
2022/11/21 14:13:45;;;;;;;1.25;0.88;;;;;;;;;;5033152;28;20147;-73
2022/11/21 14:16:40;;;;;;;1.13;0.70;;;;;;;;;;5029472;28;20163;-74
2022/11/21 14:19:18;;;;;;;1.15;0.80;;;;;;;;;;5028825;28;20481;-75
2022/11/21 14:21:46;;;;;;;1.60;0.90;;;;;;;;;;5035698;28;20072;-75
2022/11/21 14:24:21;;;;;;;1.50;0.90;;;;;;;;;;5030425;28;21176;-75
2022/11/21 14:26:51;;;;;;;3.33;1.00;;;;;;;;;;5032454;28;20491;-74
2022/11/21 14:29:25;;;;;;;1.13;1.00;;;;;;;;;;5028147;28;20045;-75
2022/11/21 14:31:52;;;;;;;2.88;0.85;;;;;;;;;;5034877;28;20404;-73
2022/11/21 14:34:29;;;;;;;1.77;0.93;;;;;;;;;;5035964;28;20802;-73
2022/11/21 14:37:02;;;;;;;2.22;0.80;;;;;;;;;;5036030;28;20059;-74
2022/11/21 14:39:32;;;;;;;2.47;0.80;;;;;;;;;;5032594;28;20409;-73
2022/11/21 14:42:00;;;;;;;6.22;0.90;;;;;;;;;;5031515;28;20045;-73
2022/11/21 14:44:26;;;;;;;4.00;0.93;;;;;;;;;;5035484;28;20137;-73
2022/11/21 14:47:14;;;;;;;1.10;0.82;;;;;;;;;;5042231;28;20047;-75
2022/11/21 14:49:51;;;;;;;3.40;0.75;;;;;;;;;;5032784;28;20072;-73
2022/11/21 14:52:23;;;;;;;1.67;0.80;;;;;;;;;;5038090;28;20361;-76
2022/11/21 14:54:57;;;;;;;1.27;0.77;;;;;;;;;;5037023;28;20091;-71
2022/11/21 14:57:28;;;;;;;2.63;0.70;;;;;;;;;;5012386;28;20040;-71
2022/11/21 14:59:56;;;;;;;4.65;1.60;;;;;;;;;;5029881;28;20056;-75
2022/11/21 15:02:28;;;;;;;5.35;0.80;;;;;;;;;;5032702;28;20110;-73
2022/11/21 15:04:59;;;;;;;2.78;0.68;;;;;;;;;;5037562;28;20402;-72
2022/11/21 15:07:27;;;;;;;3.72;0.80;;;;;;;;;;5037187;28;20044;-75
2022/11/21 15:09:54;;;;;;;1.15;0.73;;;;;;;;;;5013818;28;20049;-72
2022/11/21 15:12:29;;;;;;;5.45;0.73;;;;;;;;;;5030850;28;20064;-76
2022/11/21 15:15:05;;;;;;;2.67;1.02;;;;;;;;;;5037413;28;20456;-73
2022/11/21 15:17:32;;;;;;;0.70;0.65;;;;;;;;;;5029239;28;20525;-75
2022/11/21 15:20:11;;;;;;;0.98;0.50;;;;;;;;;;5025877;28;20056;-71
2022/11/21 15:22:40;;;;;;;2.95;0.60;;;;;;;;;;5032912;28;20403;-73
2022/11/21 15:25:17;;;;;;;2.40;0.55;;;;;;;;;;5030327;28;20517;-75
2022/11/21 15:27:47;;;;;;;2.17;0.90;;;;;;;;;;5036934;28;20056;-74
2022/11/21 15:30:13;;;;;;;1.20;0.65;;;;;;;;;;5035243;28;20044;-72
2022/11/21 15:33:06;;;;;;;1.52;0.80;;;;;;;;;;5034788;28;20064;-71
2022/11/21 15:35:50;;;;;;;3.42;0.68;;;;;;;;;;5034216;28;20067;-74
2022/11/21 15:38:31;;;;;;;4.07;0.65;;;;;;;;;;5036995;28;20056;-73
2022/11/21 15:41:09;;;;;;;3.17;0.80;;;;;;;;;;5035275;28;20075;-71
2022/11/21 15:43:49;;;;;;;2.70;0.77;;;;;;;;;;5036297;28;20503;-71
2022/11/21 15:46:23;;;;;;;3.35;0.82;;;;;;;;;;5036362;28;20045;-72